Time;durP1;ratioP1;P1;durP2;ratioP2;P2;SDS_P1;SDS_P2;PMS_P1;PMS_P2;Temp;Humidity;BMP_temperature;BMP_pressure;BME280_temperature;BME280_humidity;BME280_pressure;Samples;Min_cycle;Max_cycle;Signal;HPM_P1;HPM_P2
2024/04/04 00:01:46;;;;;;;2.30;1.05;;;11.30;97.80;;;;;;5068953;28;20048;-79
2024/04/04 00:04:12;;;;;;;3.03;0.90;;;11.30;98.80;;;;;;5041037;28;20136;-79
2024/04/04 00:06:38;;;;;;;1.88;0.88;;;11.30;99.00;;;;;;5054951;28;20052;-79
2024/04/04 00:09:04;;;;;;;2.08;0.90;;;11.30;98.60;;;;;;5038364;28;20056;-78
2024/04/04 00:11:30;;;;;;;3.20;0.70;;;11.30;98.10;;;;;;5064534;28;20059;-80
2024/04/04 00:13:56;;;;;;;1.73;0.90;;;11.30;99.00;;;;;;5038408;28;20163;-80
2024/04/04 00:16:27;;;;;;;1.63;0.80;;;11.20;98.10;;;;;;5052735;28;20059;-79
2024/04/04 00:18:53;;;;;;;4.03;1.08;;;11.20;98.80;;;;;;5082274;28;20048;-80
2024/04/04 00:21:19;;;;;;;1.40;0.90;;;11.20;99.10;;;;;;5038022;28;20125;-79
2024/04/04 00:23:45;;;;;;;3.35;0.80;;;11.20;99.80;;;;;;5054773;28;20064;-80
2024/04/04 00:26:14;;;;;;;2.13;0.70;;;11.20;99.90;;;;;;5038145;28;20453;-79
2024/04/04 00:28:39;;;;;;;2.55;1.10;;;11.20;99.50;;;;;;5054596;28;20055;-80
2024/04/04 00:31:05;;;;;;;1.40;0.70;;;11.20;99.80;;;;;;5038194;28;20052;-79
2024/04/04 00:33:33;;;;;;;1.33;0.82;;;11.20;99.90;;;;;;5038252;28;20053;-80
2024/04/04 00:36:00;;;;;;;4.05;0.80;;;11.20;99.00;;;;;;5055401;28;20052;-80
2024/04/04 00:38:27;;;;;;;2.40;1.00;;;11.20;98.60;;;;;;5054745;28;20068;-79
2024/04/04 00:40:53;;;;;;;1.80;0.85;;;11.20;98.70;;;;;;5054982;28;20114;-79
2024/04/04 00:43:19;;;;;;;2.40;0.90;;;11.20;98.90;;;;;;5037709;28;20048;-79
2024/04/04 00:45:46;;;;;;;2.55;0.85;;;11.30;98.60;;;;;;5037978;28;20125;-80
2024/04/04 00:48:12;;;;;;;2.75;1.05;;;11.30;98.40;;;;;;5080468;28;20052;-80
2024/04/04 00:50:41;;;;;;;3.92;1.15;;;11.30;98.50;;;;;;5038919;28;20127;-80
2024/04/04 00:53:10;;;;;;;1.50;0.82;;;11.30;98.00;;;;;;5034761;28;20053;-79
2024/04/04 00:55:36;;;;;;;1.67;0.85;;;11.30;97.40;;;;;;5043600;28;20056;-79
2024/04/04 00:58:03;;;;;;;2.15;0.70;;;11.40;97.00;;;;;;5054375;28;20371;-79
2024/04/04 01:00:31;;;;;;;0.98;0.80;;;11.40;96.90;;;;;;5037720;28;20052;-79
2024/04/04 01:02:57;;;;;;;1.35;0.80;;;11.40;96.70;;;;;;5054581;28;20358;-79
2024/04/04 01:05:23;;;;;;;1.38;0.80;;;11.40;96.60;;;;;;5037761;28;20052;-80
2024/04/04 01:07:52;;;;;;;2.50;0.85;;;11.50;96.60;;;;;;5050958;28;20136;-79
2024/04/04 01:10:19;;;;;;;1.13;0.60;;;11.50;96.50;;;;;;5037364;28;20049;-80
2024/04/04 01:12:45;;;;;;;1.13;0.82;;;11.50;96.60;;;;;;5037754;28;20055;-80
2024/04/04 01:15:13;;;;;;;1.20;0.60;;;11.60;96.40;;;;;;5054147;28;20044;-80
2024/04/04 01:17:38;;;;;;;3.03;0.88;;;11.60;96.90;;;;;;5037786;28;20432;-80
2024/04/04 01:20:05;;;;;;;0.82;0.70;;;11.60;97.40;;;;;;5037437;28;20087;-79
2024/04/04 01:22:33;;;;;;;1.63;0.60;;;11.60;97.20;;;;;;5038600;28;20178;-78
2024/04/04 01:24:59;;;;;;;2.05;0.88;;;11.60;97.20;;;;;;5036956;28;20159;-79
2024/04/04 01:27:25;;;;;;;1.67;0.80;;;11.60;97.40;;;;;;5054114;28;20128;-79
2024/04/04 01:29:50;;;;;;;1.73;0.73;;;11.60;97.70;;;;;;5037066;28;20460;-79
2024/04/04 01:32:17;;;;;;;3.03;0.90;;;11.70;97.90;;;;;;5037441;28;20079;-79
2024/04/04 01:34:42;;;;;;;3.15;1.20;;;11.70;98.30;;;;;;5037309;28;20106;-79
2024/04/04 01:37:09;;;;;;;4.18;1.20;;;11.70;99.10;;;;;;5058935;28;20052;-79
2024/04/04 01:39:34;;;;;;;2.70;0.98;;;11.70;99.20;;;;;;5041137;28;20056;-79
2024/04/04 01:42:00;;;;;;;3.22;0.60;;;11.60;99.30;;;;;;5041357;28;20070;-78
2024/04/04 01:44:26;;;;;;;0.95;0.65;;;11.70;99.30;;;;;;5041138;28;20465;-78
2024/04/04 01:46:52;;;;;;;2.13;0.75;;;11.60;99.90;;;;;;5041445;28;20117;-80
2024/04/04 01:49:18;;;;;;;1.35;0.80;;;11.60;99.90;;;;;;5041251;28;20764;-80
2024/04/04 01:51:44;;;;;;;1.85;0.60;;;11.60;99.90;;;;;;5057538;28;20055;-78
2024/04/04 01:54:14;;;;;;;1.38;0.77;;;11.60;99.90;;;;;;5040894;28;20073;-80
2024/04/04 01:56:41;;;;;;;3.03;0.60;;;11.50;99.90;;;;;;5055393;28;20049;-80
2024/04/04 01:59:07;;;;;;;1.85;0.55;;;11.50;99.90;;;;;;5041035;28;20052;-79
2024/04/04 02:01:33;;;;;;;2.50;0.75;;;11.50;99.90;;;;;;5040972;28;20056;-79
2024/04/04 02:03:59;;;;;;;2.63;0.93;;;11.50;99.90;;;;;;5040847;28;20060;-78
2024/04/04 02:06:25;;;;;;;3.75;0.90;;;11.50;99.90;;;;;;5057536;28;20395;-79
2024/04/04 02:08:51;;;;;;;2.28;1.08;;;11.50;99.90;;;;;;5038805;28;20053;-79
2024/04/04 02:11:17;;;;;;;1.48;0.90;;;11.50;99.90;;;;;;5056029;28;20772;-79
2024/04/04 02:13:43;;;;;;;4.20;0.70;;;11.50;99.90;;;;;;5040410;28;20066;-79
2024/04/04 02:16:11;;;;;;;2.50;0.98;;;11.50;99.90;;;;;;5040298;28;20453;-80
2024/04/04 02:18:37;;;;;;;1.85;1.00;;;11.50;99.90;;;;;;5040474;28;20053;-79
2024/04/04 02:21:04;;;;;;;0.65;0.65;;;11.50;99.90;;;;;;5040184;28;20067;-79
2024/04/04 02:23:31;;;;;;;2.00;0.90;;;11.60;99.90;;;;;;5028088;28;20064;-79
2024/04/04 02:25:58;;;;;;;2.30;0.80;;;11.60;99.90;;;;;;5090190;28;20056;-79
2024/04/04 02:28:24;;;;;;;0.90;0.80;;;11.60;99.90;;;;;;5056887;28;20049;-80
2024/04/04 02:30:50;;;;;;;3.20;1.00;;;11.60;99.90;;;;;;5040504;28;20048;-79
2024/04/04 02:33:19;;;;;;;3.05;0.90;;;11.60;99.90;;;;;;5040086;28;20053;-79
2024/04/04 02:35:53;;;;;;;1.30;0.80;;;11.60;99.90;;;;;;5056611;28;20115;-80
2024/04/04 02:38:19;;;;;;;1.33;0.80;;;11.60;99.90;;;;;;5045823;28;20053;-78
2024/04/04 02:40:47;;;;;;;1.73;0.93;;;11.60;99.90;;;;;;5040444;28;20122;-79
2024/04/04 02:43:14;;;;;;;1.23;0.70;;;11.60;99.90;;;;;;5056817;28;20060;-80
2024/04/04 02:45:40;;;;;;;1.88;0.85;;;11.60;99.90;;;;;;5040377;28;20060;-78
2024/04/04 02:48:06;;;;;;;1.00;0.90;;;11.60;99.90;;;;;;5038525;28;20056;-79
2024/04/04 02:50:32;;;;;;;1.58;0.73;;;11.60;99.90;;;;;;5040047;28;20052;-79
2024/04/04 02:52:58;;;;;;;1.58;0.90;;;11.60;99.90;;;;;;5039495;28;20049;-79
2024/04/04 02:55:26;;;;;;;4.00;1.20;;;11.60;99.90;;;;;;5035591;28;20053;-78
2024/04/04 02:57:52;;;;;;;8.43;1.40;;;11.60;99.90;;;;;;5040040;28;20045;-79
2024/04/04 03:00:19;;;;;;;1.55;1.00;;;11.60;99.90;;;;;;5039726;28;20052;-78
2024/04/04 03:02:45;;;;;;;1.25;0.70;;;11.60;99.90;;;;;;5039616;28;20091;-78
2024/04/04 03:05:11;;;;;;;1.52;0.90;;;11.60;99.90;;;;;;5056280;28;20059;-78
2024/04/04 03:07:37;;;;;;;3.15;0.90;;;11.60;99.90;;;;;;5039595;28;20155;-80
2024/04/04 03:10:06;;;;;;;2.95;0.82;;;11.60;99.90;;;;;;5039254;28;20048;-79
2024/04/04 03:12:32;;;;;;;2.40;0.90;;;11.60;99.90;;;;;;5039676;28;20106;-78
2024/04/04 03:14:58;;;;;;;4.28;0.88;;;11.60;99.90;;;;;;5039534;28;20517;-80
2024/04/04 03:17:24;;;;;;;2.33;0.93;;;11.60;99.90;;;;;;5039126;28;20056;-78
2024/04/04 03:19:52;;;;;;;1.60;0.85;;;11.60;99.90;;;;;;5065929;28;20056;-78
2024/04/04 03:22:21;;;;;;;2.75;1.13;;;11.60;99.90;;;;;;5037799;28;20063;-80
2024/04/04 03:24:47;;;;;;;2.33;1.20;;;11.60;99.90;;;;;;5040256;28;20064;-78
2024/04/04 03:27:13;;;;;;;1.25;0.95;;;11.60;99.90;;;;;;5039226;28;20056;-80
2024/04/04 03:29:38;;;;;;;2.17;0.70;;;11.50;99.90;;;;;;5039429;28;20064;-80
2024/04/04 03:32:05;;;;;;;2.53;0.90;;;11.60;99.90;;;;;;5038897;28;20473;-79
2024/04/04 03:34:30;;;;;;;4.32;0.90;;;11.60;99.90;;;;;;5067945;28;20105;-79
2024/04/04 03:36:56;;;;;;;2.70;0.90;;;11.60;99.90;;;;;;5067583;28;20056;-78
2024/04/04 03:39:22;;;;;;;4.10;0.70;;;11.50;99.90;;;;;;5061929;28;20380;-78
2024/04/04 03:41:48;;;;;;;2.50;0.70;;;11.50;99.90;;;;;;5039287;28;20052;-78
2024/04/04 03:44:14;;;;;;;2.20;0.90;;;11.50;99.90;;;;;;5038977;28;20056;-78
2024/04/04 03:46:40;;;;;;;2.00;0.98;;;11.50;99.90;;;;;;5055438;28;20127;-78
2024/04/04 03:49:06;;;;;;;1.67;0.70;;;11.50;99.90;;;;;;5055345;28;20114;-78
2024/04/04 03:51:32;;;;;;;2.70;0.90;;;11.50;99.90;;;;;;5055381;28;20461;-78
2024/04/04 03:53:58;;;;;;;3.63;0.65;;;11.50;99.90;;;;;;5040349;28;20064;-78
2024/04/04 03:56:24;;;;;;;3.47;1.02;;;11.50;99.90;;;;;;5055713;28;20388;-78
2024/04/04 03:58:49;;;;;;;3.45;0.95;;;11.50;99.90;;;;;;5038440;28;20056;-78
2024/04/04 04:01:15;;;;;;;2.15;0.85;;;11.50;99.90;;;;;;5053846;28;20060;-78
2024/04/04 04:03:46;;;;;;;2.83;0.98;;;11.50;99.90;;;;;;5055272;28;20121;-78
2024/04/04 04:06:12;;;;;;;2.47;0.77;;;11.50;99.90;;;;;;5047224;28;20497;-78
2024/04/04 04:08:38;;;;;;;4.30;1.02;;;11.60;99.90;;;;;;5055356;28;20102;-78
2024/04/04 04:11:03;;;;;;;2.55;0.88;;;11.50;99.90;;;;;;5040657;28;20160;-78
2024/04/04 04:13:29;;;;;;;5.82;2.42;;;11.50;99.90;;;;;;5054932;28;20052;-78
2024/04/04 04:15:57;;;;;;;12.90;5.80;;;11.40;99.90;;;;;;5054673;28;20045;-78
2024/04/04 04:18:27;;;;;;;9.25;3.55;;;11.40;99.90;;;;;;5051501;28;20538;-78
2024/04/04 04:23:38;;;;;;;1.55;1.08;;;11.40;99.90;;;;;;5055056;28;20139;-78
2024/04/04 04:26:04;;;;;;;4.95;1.63;;;11.30;99.90;;;;;;5038010;28;20044;-77
2024/04/04 04:28:29;;;;;;;3.53;1.15;;;11.30;99.90;;;;;;5037982;28;20496;-78
2024/04/04 04:30:57;;;;;;;2.00;1.27;;;11.30;99.90;;;;;;5030048;28;20164;-78
2024/04/04 04:33:23;;;;;;;5.50;1.75;;;11.30;99.90;;;;;;5053538;28;20056;-78
2024/04/04 04:35:49;;;;;;;4.13;1.35;;;11.30;99.90;;;;;;5037614;28;20452;-78
2024/04/04 04:38:17;;;;;;;3.03;1.30;;;11.30;99.90;;;;;;5037808;28;20049;-78
2024/04/04 04:40:44;;;;;;;3.05;1.00;;;11.30;99.90;;;;;;5033396;28;20063;-79
2024/04/04 04:43:10;;;;;;;2.72;1.45;;;11.30;99.90;;;;;;5054765;28;20059;-78
2024/04/04 04:45:36;;;;;;;2.20;1.13;;;11.30;99.90;;;;;;5054417;28;20048;-77
2024/04/04 04:48:02;;;;;;;2.47;1.00;;;11.30;99.90;;;;;;5037701;28;20052;-78
2024/04/04 04:50:30;;;;;;;4.40;1.25;;;11.30;99.90;;;;;;5037792;28;20465;-78
2024/04/04 04:52:56;;;;;;;2.42;1.20;;;11.40;99.90;;;;;;5051875;28;20049;-79
2024/04/04 04:55:22;;;;;;;6.55;1.35;;;11.40;99.90;;;;;;5037391;28;20541;-78
2024/04/04 04:57:48;;;;;;;2.38;1.00;;;11.40;99.90;;;;;;5038440;28;20068;-79
2024/04/04 05:00:15;;;;;;;2.20;1.30;;;11.40;99.90;;;;;;5054409;28;20065;-78
2024/04/04 05:02:41;;;;;;;2.97;1.23;;;11.40;99.90;;;;;;5037974;28;20389;-78
2024/04/04 05:05:15;;;;;;;2.47;1.42;;;11.50;99.90;;;;;;5050177;28;20045;-78
2024/04/04 05:07:41;;;;;;;3.65;0.93;;;11.50;99.90;;;;;;5053920;28;20071;-77
2024/04/04 05:10:07;;;;;;;2.47;0.80;;;11.60;99.90;;;;;;5037170;28;20056;-78
2024/04/04 05:12:33;;;;;;;4.53;1.05;;;11.60;99.90;;;;;;5039595;28;20057;-78
2024/04/04 05:14:59;;;;;;;1.55;1.00;;;11.60;99.90;;;;;;5037731;28;20385;-78
2024/04/04 05:17:25;;;;;;;2.28;0.68;;;11.60;99.90;;;;;;5037651;28;20048;-78
2024/04/04 05:19:53;;;;;;;2.83;1.02;;;11.70;99.90;;;;;;5037433;28;20071;-78
2024/04/04 05:22:19;;;;;;;2.03;1.13;;;11.70;99.90;;;;;;5037651;28;20056;-78
2024/04/04 05:24:45;;;;;;;7.05;1.20;;;11.70;99.90;;;;;;5026966;28;20059;-78
2024/04/04 05:27:11;;;;;;;2.55;0.95;;;11.80;99.90;;;;;;5054838;28;20086;-78
2024/04/04 05:29:41;;;;;;;2.05;1.05;;;11.80;99.90;;;;;;5054127;28;20072;-78
2024/04/04 05:32:07;;;;;;;2.60;1.08;;;11.80;99.90;;;;;;5036996;28;20045;-77
2024/04/04 05:34:32;;;;;;;2.95;1.00;;;11.80;99.90;;;;;;5037463;28;20087;-77
2024/04/04 05:36:58;;;;;;;3.13;1.10;;;12.00;99.90;;;;;;5052523;28;20123;-78
2024/04/04 05:39:24;;;;;;;2.45;1.02;;;12.00;99.90;;;;;;5050602;28;20052;-78
2024/04/04 05:41:52;;;;;;;3.22;1.20;;;12.10;99.90;;;;;;5053585;28;20131;-78
2024/04/04 05:44:21;;;;;;;3.97;1.73;;;12.20;99.10;;;;;;5053640;28;20044;-77
2024/04/04 05:46:47;;;;;;;1.35;1.00;;;12.30;99.20;;;;;;5051045;28;20045;-78
2024/04/04 05:49:13;;;;;;;1.17;1.05;;;12.40;99.10;;;;;;5036391;28;20433;-77
2024/04/04 05:51:39;;;;;;;2.58;1.27;;;12.50;97.80;;;;;;5036670;28;20044;-78
2024/04/04 05:54:05;;;;;;;2.80;0.93;;;12.50;97.70;;;;;;5037442;28;20055;-78
2024/04/04 05:56:30;;;;;;;2.65;1.30;;;12.60;97.10;;;;;;5053621;28;20061;-77
2024/04/04 05:58:56;;;;;;;10.32;2.17;;;12.60;96.50;;;;;;5060870;28;20084;-78
2024/04/04 06:01:23;;;;;;;4.47;1.08;;;12.70;96.10;;;;;;5036127;28;20385;-77
2024/04/04 06:03:48;;;;;;;4.60;1.17;;;12.70;95.60;;;;;;5037454;28;20087;-78
2024/04/04 06:06:14;;;;;;;2.10;1.00;;;12.80;95.80;;;;;;5052748;28;20044;-77
2024/04/04 06:08:42;;;;;;;2.85;0.90;;;12.80;94.90;;;;;;5046103;28;20567;-78
2024/04/04 06:11:09;;;;;;;2.35;0.70;;;12.90;94.80;;;;;;5036526;28;20044;-78
2024/04/04 06:13:35;;;;;;;1.88;0.60;;;12.90;93.90;;;;;;5039643;28;20048;-78
2024/04/04 06:16:03;;;;;;;1.48;0.63;;;12.90;93.20;;;;;;5036254;28;20072;-78
2024/04/04 06:18:32;;;;;;;2.78;0.60;;;12.90;93.30;;;;;;5036892;28;20106;-78
2024/04/04 06:21:00;;;;;;;1.40;0.70;;;13.00;93.00;;;;;;5036594;28;20060;-78
2024/04/04 06:23:29;;;;;;;5.00;0.70;;;13.00;92.60;;;;;;5057094;28;20066;-78
2024/04/04 06:25:55;;;;;;;0.77;0.60;;;13.10;92.70;;;;;;5057107;28;20060;-78
2024/04/04 06:28:21;;;;;;;2.47;0.50;;;13.10;91.00;;;;;;5057317;28;20049;-78
2024/04/04 06:30:46;;;;;;;1.67;0.75;;;13.20;91.00;;;;;;5040521;28;20084;-78
2024/04/04 06:33:12;;;;;;;1.45;0.80;;;13.20;90.80;;;;;;5040016;28;20045;-78
2024/04/04 06:35:38;;;;;;;2.63;0.80;;;13.30;90.40;;;;;;5040357;28;20048;-78
2024/04/04 06:38:04;;;;;;;2.03;0.50;;;13.30;90.20;;;;;;5066962;28;20091;-78
2024/04/04 06:40:33;;;;;;;2.03;0.90;;;13.40;89.80;;;;;;5057145;28;20155;-78
2024/04/04 06:43:01;;;;;;;2.00;0.57;;;13.50;90.40;;;;;;5058206;28;20393;-78
2024/04/04 06:45:26;;;;;;;1.65;0.52;;;13.60;90.20;;;;;;5040327;28;20053;-78
2024/04/04 06:48:00;;;;;;;1.17;0.60;;;13.60;87.90;;;;;;5040241;28;20060;-78
2024/04/04 06:50:29;;;;;;;4.32;0.73;;;13.70;89.30;;;;;;5056752;28;20133;-78
2024/04/04 06:52:55;;;;;;;3.10;0.77;;;13.80;87.20;;;;;;5040019;28;20056;-78
2024/04/04 06:55:21;;;;;;;3.85;0.90;;;13.80;89.00;;;;;;5037537;28;20053;-78
2024/04/04 06:57:47;;;;;;;3.50;0.80;;;13.90;87.60;;;;;;5033142;28;20048;-78
2024/04/04 07:00:16;;;;;;;2.35;0.70;;;14.00;85.40;;;;;;5036574;28;20126;-78
2024/04/04 07:02:42;;;;;;;2.90;0.73;;;14.10;85.70;;;;;;5037307;28;20049;-78
2024/04/04 07:05:11;;;;;;;2.67;0.82;;;14.20;86.00;;;;;;5035837;28;20053;-78
2024/04/04 07:07:37;;;;;;;1.83;0.60;;;14.30;83.60;;;;;;5029676;28;20044;-78
2024/04/04 07:10:05;;;;;;;0.80;0.47;;;14.40;82.90;;;;;;5056054;28;20045;-78
2024/04/04 07:12:32;;;;;;;3.88;0.60;;;14.40;81.70;;;;;;5039022;28;20053;-78
2024/04/04 07:15:00;;;;;;;0.90;0.40;;;14.60;81.50;;;;;;5040389;28;20056;-78
2024/04/04 07:17:29;;;;;;;0.93;0.43;;;14.70;81.80;;;;;;5038875;28;20465;-78
2024/04/04 07:19:59;;;;;;;2.03;0.75;;;14.80;79.40;;;;;;5043197;28;20056;-78
2024/04/04 07:22:26;;;;;;;2.63;0.52;;;14.90;78.20;;;;;;5046158;28;20053;-78
2024/04/04 07:24:54;;;;;;;2.33;0.60;;;14.90;76.50;;;;;;5053194;28;20113;-78
2024/04/04 07:27:20;;;;;;;1.92;0.60;;;15.00;78.10;;;;;;5055963;28;20049;-78
2024/04/04 07:29:46;;;;;;;0.52;0.40;;;15.00;75.70;;;;;;5054286;28;20059;-78
2024/04/04 07:32:13;;;;;;;1.77;0.40;;;15.00;74.90;;;;;;5057124;28;20878;-79
2024/04/04 07:34:39;;;;;;;1.00;0.40;;;15.00;76.40;;;;;;5068037;28;20044;-79
2024/04/04 07:37:05;;;;;;;2.40;0.77;;;15.00;73.80;;;;;;5049349;28;20118;-79
2024/04/04 07:39:36;;;;;;;1.38;0.60;;;15.10;75.60;;;;;;5038602;28;20064;-78
2024/04/04 07:42:02;;;;;;;0.98;0.30;;;15.20;72.30;;;;;;5038976;28;20064;-78
2024/04/04 07:44:30;;;;;;;1.60;0.40;;;15.30;70.90;;;;;;5073414;28;20440;-78
2024/04/04 07:46:57;;;;;;;1.40;0.38;;;15.40;70.00;;;;;;5054635;28;20362;-79
2024/04/04 07:49:24;;;;;;;0.93;0.52;;;15.50;70.60;;;;;;5038984;28;20056;-79
2024/04/04 07:51:50;;;;;;;1.83;0.35;;;15.60;71.00;;;;;;5068204;28;20048;-79
2024/04/04 07:54:16;;;;;;;0.30;0.30;;;15.80;70.00;;;;;;5053680;28;20056;-79
2024/04/04 07:56:42;;;;;;;0.90;0.22;;;15.90;68.30;;;;;;5069163;28;20064;-79
2024/04/04 07:59:07;;;;;;;0.50;0.30;;;15.90;67.20;;;;;;5055491;28;20057;-79
2024/04/04 08:01:34;;;;;;;3.22;0.40;;;16.00;66.30;;;;;;5071183;28;20111;-78
2024/04/04 08:04:00;;;;;;;2.42;0.40;;;16.00;67.40;;;;;;5055087;28;20382;-79
2024/04/04 08:06:28;;;;;;;2.17;0.52;;;16.00;66.40;;;;;;5054883;28;20053;-79
2024/04/04 08:08:54;;;;;;;1.38;0.30;;;16.10;66.50;;;;;;5054466;28;20481;-79
2024/04/04 08:11:21;;;;;;;4.57;0.50;;;16.20;66.70;;;;;;5054508;28;20051;-79
2024/04/04 08:13:47;;;;;;;3.20;0.50;;;16.40;65.80;;;;;;5068217;28;20052;-79
2024/04/04 08:16:13;;;;;;;3.88;0.63;;;16.60;64.70;;;;;;5054615;28;20393;-78
2024/04/04 08:18:39;;;;;;;1.42;0.50;;;16.70;62.80;;;;;;5052142;28;20457;-79
2024/04/04 08:21:07;;;;;;;2.35;0.45;;;16.90;62.30;;;;;;5043002;28;20118;-79
2024/04/04 08:23:33;;;;;;;0.75;0.35;;;17.00;61.80;;;;;;5074722;28;20057;-79
2024/04/04 08:26:00;;;;;;;2.78;0.75;;;17.10;62.10;;;;;;5066396;28;20178;-79
2024/04/04 08:28:27;;;;;;;2.90;0.30;;;17.20;60.80;;;;;;5051758;28;20052;-79
2024/04/04 08:31:06;;;;;;;2.05;0.40;;;17.40;61.50;;;;;;5071475;28;20048;-79
2024/04/04 08:33:35;;;;;;;2.83;0.30;;;17.60;60.00;;;;;;5056309;28;20048;-79
2024/04/04 08:36:02;;;;;;;2.40;0.40;;;17.80;59.90;;;;;;5054003;28;20068;-79
2024/04/04 08:38:30;;;;;;;2.75;0.50;;;17.90;59.60;;;;;;5061165;28;20060;-78
2024/04/04 08:41:07;;;;;;;0.82;0.20;;;17.90;58.90;;;;;;5054285;28;20060;-78
2024/04/04 08:43:33;;;;;;;0.55;0.30;;;17.90;58.20;;;;;;5034375;28;20075;-79
2024/04/04 08:46:05;;;;;;;1.60;0.32;;;17.90;57.10;;;;;;5038183;28;20059;-78
2024/04/04 08:48:32;;;;;;;1.45;0.32;;;17.80;56.20;;;;;;5054494;28;20064;-78
2024/04/04 08:50:58;;;;;;;2.03;0.35;;;17.70;56.40;;;;;;5037641;28;20048;-79
2024/04/04 08:53:25;;;;;;;0.88;0.20;;;17.60;57.30;;;;;;5053723;28;20795;-78
2024/04/04 08:55:54;;;;;;;2.58;0.40;;;17.50;57.00;;;;;;5031925;28;20118;-78
2024/04/04 08:58:23;;;;;;;0.65;0.30;;;17.40;57.30;;;;;;5073275;28;20048;-79
2024/04/04 09:00:50;;;;;;;0.98;0.50;;;17.50;57.90;;;;;;5037899;28;20045;-79
2024/04/04 09:03:17;;;;;;;1.45;0.20;;;17.60;58.10;;;;;;5053794;28;20056;-79
2024/04/04 09:05:49;;;;;;;4.30;0.43;;;17.80;57.10;;;;;;5050311;28;20048;-79
2024/04/04 09:08:16;;;;;;;0.85;0.30;;;18.10;56.90;;;;;;5051576;28;20063;-79
2024/04/04 09:10:43;;;;;;;1.20;0.30;;;18.40;55.70;;;;;;5034614;28;20460;-79
2024/04/04 09:13:10;;;;;;;1.40;0.20;;;18.50;54.20;;;;;;5053384;28;20048;-78
2024/04/04 09:15:37;;;;;;;1.13;0.28;;;18.50;54.60;;;;;;5067995;28;20052;-79
2024/04/04 09:18:06;;;;;;;2.58;0.28;;;18.80;55.70;;;;;;5067801;28;20052;-79
2024/04/04 09:20:39;;;;;;;0.68;0.50;;;19.10;54.30;;;;;;5050849;28;20075;-79
2024/04/04 09:23:06;;;;;;;3.50;0.50;;;19.50;56.00;;;;;;5053544;28;20053;-79
2024/04/04 09:25:34;;;;;;;2.92;0.25;;;19.80;52.80;;;;;;5031922;28;20060;-79
2024/04/04 09:28:03;;;;;;;1.85;0.38;;;20.00;52.30;;;;;;5037549;28;20377;-79
2024/04/04 09:30:32;;;;;;;1.05;0.35;;;20.00;51.40;;;;;;5054128;28;20373;-79
2024/04/04 09:32:58;;;;;;;1.15;0.20;;;20.10;50.00;;;;;;5053462;28;20691;-79
2024/04/04 09:35:24;;;;;;;0.40;0.20;;;20.20;50.40;;;;;;5037383;28;20100;-79
2024/04/04 09:37:50;;;;;;;1.55;0.40;;;20.40;50.20;;;;;;5053472;28;20052;-79
2024/04/04 09:40:17;;;;;;;0.77;0.20;;;20.50;50.60;;;;;;5037460;28;20133;-79
2024/04/04 09:42:47;;;;;;;1.15;0.20;;;20.40;49.90;;;;;;5077482;28;20385;-79
2024/04/04 09:45:14;;;;;;;0.60;0.20;;;20.50;49.10;;;;;;5053556;28;20059;-79
2024/04/04 09:47:44;;;;;;;0.50;0.15;;;20.40;48.90;;;;;;5039729;28;20064;-79
2024/04/04 09:50:12;;;;;;;0.80;0.20;;;20.60;49.10;;;;;;5052751;28;20106;-79
2024/04/04 09:52:38;;;;;;;0.38;0.20;;;20.60;48.20;;;;;;5053557;28;20044;-79
2024/04/04 09:55:10;;;;;;;0.63;0.20;;;20.60;48.50;;;;;;5050603;28;20056;-79
2024/04/04 09:57:42;;;;;;;0.28;0.20;;;20.60;47.80;;;;;;5055229;28;20045;-79
2024/04/04 10:00:15;;;;;;;0.55;0.20;;;20.70;47.80;;;;;;5049354;28;20389;-79
2024/04/04 10:02:54;;;;;;;0.13;0.10;;;20.70;48.50;;;;;;5039873;28;20381;-79
2024/04/04 10:05:35;;;;;;;0.40;0.10;;;20.90;47.80;;;;;;5051538;28;20056;-79
2024/04/04 10:08:12;;;;;;;0.52;0.20;;;21.10;47.20;;;;;;5048838;28;20049;-80
2024/04/04 10:10:42;;;;;;;0.20;0.10;;;21.40;47.00;;;;;;5038388;28;20052;-79
2024/04/04 10:13:11;;;;;;;0.65;0.32;;;21.40;45.40;;;;;;5049216;28;20056;-79
2024/04/04 10:15:45;;;;;;;0.20;0.15;;;21.50;46.00;;;;;;5027698;28;20049;-81
2024/04/04 10:18:15;;;;;;;0.25;0.10;;;21.60;45.20;;;;;;5031659;28;20060;-79
2024/04/04 10:20:54;;;;;;;0.93;0.20;;;21.90;46.90;;;;;;5055263;28;20060;-78
2024/04/04 10:23:30;;;;;;;0.15;0.15;;;22.00;44.70;;;;;;5056969;28;20052;-79
2024/04/04 10:26:05;;;;;;;0.88;0.17;;;22.00;46.20;;;;;;5056953;28;20102;-78
2024/04/04 10:28:31;;;;;;;0.82;0.20;;;22.00;45.30;;;;;;5040132;28;20052;-78
2024/04/04 10:31:00;;;;;;;0.47;0.10;;;21.80;44.70;;;;;;5056622;28;20045;-78
2024/04/04 10:33:28;;;;;;;3.53;0.30;;;21.80;45.40;;;;;;5040692;28;20460;-79
2024/04/04 10:36:01;;;;;;;1.10;0.20;;;22.00;45.40;;;;;;5056364;28;20049;-79
2024/04/04 10:38:27;;;;;;;0.57;0.17;;;22.30;45.70;;;;;;5057029;28;20049;-79
2024/04/04 10:40:55;;;;;;;0.95;0.10;;;22.70;44.70;;;;;;5056643;28;20473;-79
2024/04/04 10:43:21;;;;;;;1.85;0.22;;;23.00;42.60;;;;;;5040339;28;20129;-79
2024/04/04 10:45:49;;;;;;;0.75;0.40;;;23.30;43.00;;;;;;5039468;28;20457;-79
2024/04/04 10:48:15;;;;;;;1.67;0.30;;;23.90;43.50;;;;;;5040080;28;20048;-79
2024/04/04 10:50:44;;;;;;;1.02;0.10;;;24.60;41.90;;;;;;5040087;28;20052;-79
2024/04/04 10:53:10;;;;;;;1.85;0.20;;;25.10;39.00;;;;;;5036702;28;20052;-79
2024/04/04 10:55:36;;;;;;;0.55;0.10;;;25.30;37.60;;;;;;5074824;28;20045;-79
2024/04/04 10:58:07;;;;;;;0.65;0.17;;;25.60;37.40;;;;;;5036799;28;20060;-79
2024/04/04 11:00:35;;;;;;;0.43;0.10;;;26.30;38.90;;;;;;5038132;28;20068;-79
2024/04/04 11:03:09;;;;;;;0.60;0.20;;;26.90;37.10;;;;;;5037578;28;20056;-79
2024/04/04 11:05:35;;;;;;;;;;;27.70;34.80;;;;;;5057643;28;20105;-79
2024/04/04 11:08:08;;;;;;;1.08;0.20;;;28.50;32.90;;;;;;5038900;28;19932;-79
2024/04/04 11:10:43;;;;;;;1.20;0.17;;;29.10;31.30;;;;;;5055119;28;20122;-79
2024/04/04 11:13:11;;;;;;;0.60;0.10;;;29.60;30.50;;;;;;5053649;28;20049;-80
2024/04/04 11:15:37;;;;;;;0.90;0.10;;;30.10;29.80;;;;;;5039699;28;20060;-80
2024/04/04 11:18:03;;;;;;;1.40;0.10;;;30.50;29.40;;;;;;5039653;28;20157;-79
2024/04/04 11:20:31;;;;;;;2.22;0.30;;;30.90;28.90;;;;;;5038141;28;20044;-81
2024/04/04 11:22:57;;;;;;;0.25;0.10;;;30.70;29.10;;;;;;5038779;28;20528;-82
2024/04/04 11:25:23;;;;;;;0.13;0.10;;;30.60;30.10;;;;;;5055455;28;20049;-82
2024/04/04 11:27:49;;;;;;;0.63;0.10;;;31.20;29.90;;;;;;5039126;28;20110;-81
2024/04/04 11:30:14;;;;;;;0.50;0.20;;;31.90;27.80;;;;;;5039338;28;20052;-82
2024/04/04 11:32:40;;;;;;;0.63;0.20;;;32.30;28.60;;;;;;5038531;28;20151;-82
2024/04/04 11:35:08;;;;;;;0.52;0.17;;;33.00;27.90;;;;;;5039349;28;21037;-83
2024/04/04 11:37:34;;;;;;;0.50;0.10;;;33.60;26.00;;;;;;5038909;28;20057;-82
2024/04/04 11:40:00;;;;;;;0.80;0.22;;;34.40;26.00;;;;;;5038249;28;20057;-83
2024/04/04 11:42:26;;;;;;;0.38;0.10;;;35.00;24.80;;;;;;5055224;28;20481;-82
2024/04/04 11:44:52;;;;;;;0.88;0.28;;;35.30;23.70;;;;;;5038471;28;20064;-83
2024/04/04 11:47:18;;;;;;;0.20;0.10;;;35.20;24.20;;;;;;5037559;28;20052;-82
2024/04/04 11:49:45;;;;;;;1.20;0.20;;;35.30;24.60;;;;;;5055158;28;20071;-83
2024/04/04 11:52:13;;;;;;;0.88;0.20;;;36.00;23.90;;;;;;5055901;28;20055;-83
2024/04/04 11:54:39;;;;;;;0.55;0.20;;;36.70;25.20;;;;;;5038137;28;20063;-82
2024/04/04 11:57:05;;;;;;;2.17;0.20;;;37.00;23.20;;;;;;5037787;28;20080;-80
2024/04/04 11:59:31;;;;;;;0.20;0.10;;;37.00;22.90;;;;;;5049902;28;20499;-80
2024/04/04 12:01:57;;;;;;;1.15;0.20;;;37.50;22.90;;;;;;5054984;28;20044;-80
2024/04/04 12:04:24;;;;;;;0.38;0.10;;;37.80;21.90;;;;;;5082603;28;20063;-80
2024/04/04 12:06:50;;;;;;;1.10;0.30;;;37.70;23.10;;;;;;5053975;28;20044;-80
2024/04/04 12:09:16;;;;;;;2.00;0.10;;;37.70;22.20;;;;;;5036641;28;20118;-80
2024/04/04 12:11:43;;;;;;;0.65;0.17;;;37.40;21.50;;;;;;5054544;28;20098;-79
2024/04/04 12:14:09;;;;;;;0.52;0.10;;;36.80;22.90;;;;;;5038465;28;20362;-80
2024/04/04 12:16:35;;;;;;;0.25;0.20;;;36.90;24.30;;;;;;5054898;28;20125;-80
2024/04/04 12:21:46;;;;;;;1.27;0.15;;;37.60;23.30;;;;;;5053071;28;20745;-80
2024/04/04 12:24:15;;;;;;;0.73;0.20;;;37.70;22.40;;;;;;5054983;28;20068;-80
2024/04/04 12:26:43;;;;;;;0.95;0.20;;;37.20;22.00;;;;;;5038223;28;20105;-80
2024/04/04 12:29:12;;;;;;;0.75;0.20;;;36.60;22.20;;;;;;5052716;28;20351;-80
2024/04/04 12:31:38;;;;;;;0.85;0.10;;;36.00;23.20;;;;;;5052735;28;20103;-80
2024/04/04 12:34:06;;;;;;;0.38;0.20;;;35.40;24.70;;;;;;5037363;28;20476;-80
2024/04/04 12:36:34;;;;;;;0.95;0.20;;;34.70;25.20;;;;;;5071367;28;20060;-80
2024/04/04 12:39:00;;;;;;;0.63;0.30;;;34.10;25.50;;;;;;5054334;28;20079;-80
2024/04/04 12:41:26;;;;;;;1.02;0.30;;;33.50;26.70;;;;;;5054467;28;20044;-79
2024/04/04 12:43:52;;;;;;;0.88;0.20;;;33.50;26.60;;;;;;5054476;28;20044;-80
2024/04/04 12:46:19;;;;;;;1.35;0.00;;;33.50;26.20;;;;;;5037837;28;20381;-80
2024/04/04 12:48:46;;;;;;;0.43;0.13;;;33.70;25.00;;;;;;5035291;28;20476;-80
2024/04/04 12:51:15;;;;;;;2.00;0.10;;;32.80;25.70;;;;;;5055800;28;20491;-80
2024/04/04 12:53:41;;;;;;;0.47;0.20;;;32.20;27.20;;;;;;5054412;28;20118;-79